sensor_id;sensor_type;location;lat;lon;timestamp;pressure;altitude;pressure_sealevel;temperature;humidity
6453;BME280;3259;51.080;13.712;2023-06-22T00:02:36;100611.28;;;29.69;48.36
6453;BME280;3259;51.080;13.712;2023-06-22T00:05:25;100618.16;;;29.65;47.92
6453;BME280;3259;51.080;13.712;2023-06-22T00:08:14;100609.56;;;29.74;47.94
6453;BME280;3259;51.080;13.712;2023-06-22T00:11:03;100614.09;;;29.80;47.48
6453;BME280;3259;51.080;13.712;2023-06-22T00:13:53;100615.78;;;29.75;47.74
6453;BME280;3259;51.080;13.712;2023-06-22T00:16:42;100616.84;;;29.74;47.46
6453;BME280;3259;51.080;13.712;2023-06-22T00:19:33;100621.25;;;29.68;47.59
6453;BME280;3259;51.080;13.712;2023-06-22T00:22:23;100619.91;;;29.77;46.87
6453;BME280;3259;51.080;13.712;2023-06-22T00:25:16;100630.44;;;29.79;46.86
6453;BME280;3259;51.080;13.712;2023-06-22T00:28:05;100637.59;;;29.67;47.22
6453;BME280;3259;51.080;13.712;2023-06-22T00:30:55;100640.34;;;29.60;47.24
6453;BME280;3259;51.080;13.712;2023-06-22T00:33:44;100639.19;;;29.50;47.17
6453;BME280;3259;51.080;13.712;2023-06-22T00:36:33;100637.56;;;29.49;47.10
6453;BME280;3259;51.080;13.712;2023-06-22T00:39:22;100640.25;;;29.49;46.59
6453;BME280;3259;51.080;13.712;2023-06-22T00:42:10;100640.44;;;29.47;46.58
6453;BME280;3259;51.080;13.712;2023-06-22T00:44:59;100645.72;;;29.60;46.48
6453;BME280;3259;51.080;13.712;2023-06-22T00:47:50;100641.78;;;29.63;46.45
6453;BME280;3259;51.080;13.712;2023-06-22T00:50:39;100639.53;;;29.60;46.90
6453;BME280;3259;51.080;13.712;2023-06-22T00:53:28;100630.25;;;29.56;46.94
6453;BME280;3259;51.080;13.712;2023-06-22T00:56:20;100636.50;;;29.50;46.89
6453;BME280;3259;51.080;13.712;2023-06-22T00:59:11;100633.38;;;29.53;46.87
6453;BME280;3259;51.080;13.712;2023-06-22T01:02:04;100632.50;;;29.59;46.55
6453;BME280;3259;51.080;13.712;2023-06-22T01:04:54;100629.19;;;29.57;46.28
6453;BME280;3259;51.080;13.712;2023-06-22T01:07:53;100634.66;;;29.44;46.63
6453;BME280;3259;51.080;13.712;2023-06-22T01:10:48;100633.47;;;29.40;46.57
6453;BME280;3259;51.080;13.712;2023-06-22T01:13:45;100635.09;;;29.41;46.83
6453;BME280;3259;51.080;13.712;2023-06-22T01:16:41;100630.56;;;29.41;46.86
6453;BME280;3259;51.080;13.712;2023-06-22T01:19:37;100632.22;;;29.42;46.17
6453;BME280;3259;51.080;13.712;2023-06-22T01:22:32;100629.28;;;29.44;46.80
6453;BME280;3259;51.080;13.712;2023-06-22T01:25:28;100620.47;;;29.37;46.23
6453;BME280;3259;51.080;13.712;2023-06-22T01:28:32;100625.59;;;29.38;46.26
6453;BME280;3259;51.080;13.712;2023-06-22T01:31:25;100620.22;;;29.38;46.47
6453;BME280;3259;51.080;13.712;2023-06-22T01:34:17;100632.22;;;29.42;46.54
6453;BME280;3259;51.080;13.712;2023-06-22T01:37:07;100622.25;;;29.43;46.48
6453;BME280;3259;51.080;13.712;2023-06-22T01:39:56;100623.16;;;29.37;46.59
6453;BME280;3259;51.080;13.712;2023-06-22T01:42:47;100621.28;;;29.37;46.86
6453;BME280;3259;51.080;13.712;2023-06-22T01:45:40;100627.69;;;29.36;46.30
6453;BME280;3259;51.080;13.712;2023-06-22T01:48:29;100635.22;;;29.28;46.46
6453;BME280;3259;51.080;13.712;2023-06-22T01:51:18;100621.44;;;29.18;46.64
6453;BME280;3259;51.080;13.712;2023-06-22T01:54:07;100628.97;;;29.09;46.95
6453;BME280;3259;51.080;13.712;2023-06-22T01:56:56;100630.81;;;29.09;47.39
6453;BME280;3259;51.080;13.712;2023-06-22T01:59:49;100630.75;;;29.15;46.83
6453;BME280;3259;51.080;13.712;2023-06-22T02:02:44;100625.44;;;29.09;47.44
6453;BME280;3259;51.080;13.712;2023-06-22T02:05:37;100623.78;;;29.08;47.57
6453;BME280;3259;51.080;13.712;2023-06-22T02:08:31;100623.63;;;29.27;47.34
6453;BME280;3259;51.080;13.712;2023-06-22T02:11:21;100614.75;;;29.27;47.21
6453;BME280;3259;51.080;13.712;2023-06-22T02:14:12;100619.97;;;29.22;47.13
6453;BME280;3259;51.080;13.712;2023-06-22T02:17:03;100615.38;;;29.29;47.07
6453;BME280;3259;51.080;13.712;2023-06-22T02:19:56;100610.84;;;29.23;47.44
6453;BME280;3259;51.080;13.712;2023-06-22T02:22:44;100607.16;;;29.24;47.02
6453;BME280;3259;51.080;13.712;2023-06-22T02:25:33;100618.31;;;29.21;47.29
6453;BME280;3259;51.080;13.712;2023-06-22T02:28:22;100627.72;;;29.12;47.10
6453;BME280;3259;51.080;13.712;2023-06-22T02:31:10;100622.50;;;29.17;47.16
6453;BME280;3259;51.080;13.712;2023-06-22T02:33:59;100623.78;;;29.08;47.12
6453;BME280;3259;51.080;13.712;2023-06-22T02:36:50;100622.00;;;29.02;47.60
6453;BME280;3259;51.080;13.712;2023-06-22T02:39:38;100623.03;;;29.01;47.48
6453;BME280;3259;51.080;13.712;2023-06-22T02:42:27;100624.22;;;29.05;47.57
6453;BME280;3259;51.080;13.712;2023-06-22T02:45:16;100635.13;;;29.10;46.87
6453;BME280;3259;51.080;13.712;2023-06-22T02:48:05;100636.19;;;29.09;46.88
6453;BME280;3259;51.080;13.712;2023-06-22T02:50:54;100651.53;;;29.02;47.38
6453;BME280;3259;51.080;13.712;2023-06-22T02:53:44;100656.72;;;28.97;47.42
6453;BME280;3259;51.080;13.712;2023-06-22T02:56:32;100655.31;;;28.94;46.98
6453;BME280;3259;51.080;13.712;2023-06-22T02:59:23;100648.84;;;29.02;47.26
6453;BME280;3259;51.080;13.712;2023-06-22T03:02:12;100636.78;;;29.11;47.38
6453;BME280;3259;51.080;13.712;2023-06-22T03:05:01;100633.13;;;29.05;47.23
6453;BME280;3259;51.080;13.712;2023-06-22T03:07:50;100635.47;;;28.95;47.74
6453;BME280;3259;51.080;13.712;2023-06-22T03:10:40;100660.69;;;28.88;47.44
6453;BME280;3259;51.080;13.712;2023-06-22T03:13:29;100652.22;;;28.91;47.25
6453;BME280;3259;51.080;13.712;2023-06-22T03:16:18;100637.13;;;28.90;47.55
6453;BME280;3259;51.080;13.712;2023-06-22T03:19:07;100633.34;;;29.04;47.46
6453;BME280;3259;51.080;13.712;2023-06-22T03:21:55;100614.28;;;29.12;47.48
6453;BME280;3259;51.080;13.712;2023-06-22T03:24:44;100611.50;;;28.94;47.40
6453;BME280;3259;51.080;13.712;2023-06-22T03:27:34;100603.00;;;28.97;47.20
6453;BME280;3259;51.080;13.712;2023-06-22T03:30:23;100599.00;;;29.06;46.87
6453;BME280;3259;51.080;13.712;2023-06-22T03:33:12;100593.91;;;28.98;47.20
6453;BME280;3259;51.080;13.712;2023-06-22T03:36:01;100607.84;;;28.82;48.02
6453;BME280;3259;51.080;13.712;2023-06-22T03:38:51;100610.31;;;28.83;47.85
6453;BME280;3259;51.080;13.712;2023-06-22T03:41:39;100614.44;;;28.79;47.73
6453;BME280;3259;51.080;13.712;2023-06-22T03:44:29;100614.09;;;28.76;47.75
6453;BME280;3259;51.080;13.712;2023-06-22T03:47:18;100611.56;;;28.81;47.38
6453;BME280;3259;51.080;13.712;2023-06-22T03:50:08;100618.56;;;28.82;47.77
6453;BME280;3259;51.080;13.712;2023-06-22T03:52:58;100618.56;;;28.82;47.29
6453;BME280;3259;51.080;13.712;2023-06-22T03:55:49;100611.59;;;28.74;47.94
6453;BME280;3259;51.080;13.712;2023-06-22T03:58:38;100611.66;;;28.68;48.21
6453;BME280;3259;51.080;13.712;2023-06-22T04:01:31;100618.81;;;28.74;47.86
6453;BME280;3259;51.080;13.712;2023-06-22T04:04:20;100619.09;;;28.66;48.33
6453;BME280;3259;51.080;13.712;2023-06-22T04:07:09;100615.56;;;28.65;48.52
6453;BME280;3259;51.080;13.712;2023-06-22T04:09:58;100619.09;;;28.66;48.49
6453;BME280;3259;51.080;13.712;2023-06-22T04:12:47;100625.22;;;28.73;48.30
6453;BME280;3259;51.080;13.712;2023-06-22T04:15:35;100636.84;;;28.67;48.34
6453;BME280;3259;51.080;13.712;2023-06-22T04:18:25;100649.63;;;28.71;47.82
6453;BME280;3259;51.080;13.712;2023-06-22T04:21:14;100645.28;;;28.77;47.99
6453;BME280;3259;51.080;13.712;2023-06-22T04:24:03;100632.69;;;28.71;47.99
6453;BME280;3259;51.080;13.712;2023-06-22T04:26:51;100637.63;;;28.74;48.03
6453;BME280;3259;51.080;13.712;2023-06-22T04:29:41;100632.00;;;28.82;48.34
6453;BME280;3259;51.080;13.712;2023-06-22T04:32:35;100635.88;;;28.86;47.85
6453;BME280;3259;51.080;13.712;2023-06-22T04:35:26;100642.97;;;28.74;48.03
6453;BME280;3259;51.080;13.712;2023-06-22T04:38:15;100641.94;;;28.75;47.98
6453;BME280;3259;51.080;13.712;2023-06-22T04:41:04;100645.06;;;28.72;48.14
6453;BME280;3259;51.080;13.712;2023-06-22T04:43:53;100654.19;;;28.64;48.53
6453;BME280;3259;51.080;13.712;2023-06-22T04:46:47;100662.88;;;28.66;48.49
6453;BME280;3259;51.080;13.712;2023-06-22T04:49:40;100675.56;;;28.84;48.20
6453;BME280;3259;51.080;13.712;2023-06-22T04:52:31;100675.56;;;28.84;47.72
6453;BME280;3259;51.080;13.712;2023-06-22T04:55:20;100681.13;;;28.89;47.70
6453;BME280;3259;51.080;13.712;2023-06-22T04:58:09;100696.22;;;28.90;47.73
6453;BME280;3259;51.080;13.712;2023-06-22T05:01:00;100689.44;;;28.81;48.34
6453;BME280;3259;51.080;13.712;2023-06-22T05:03:50;100695.25;;;28.78;48.08
6453;BME280;3259;51.080;13.712;2023-06-22T05:06:42;100693.19;;;28.73;48.62
6453;BME280;3259;51.080;13.712;2023-06-22T05:09:33;100707.03;;;28.77;48.56
6453;BME280;3259;51.080;13.712;2023-06-22T05:12:22;100714.03;;;28.78;48.53
6453;BME280;3259;51.080;13.712;2023-06-22T05:15:11;100728.91;;;28.74;48.36
6453;BME280;3259;51.080;13.712;2023-06-22T05:18:00;100722.34;;;28.70;48.65
6453;BME280;3259;51.080;13.712;2023-06-22T05:20:52;100724.84;;;28.65;48.16
6453;BME280;3259;51.080;13.712;2023-06-22T05:23:41;100719.03;;;28.68;48.47
6453;BME280;3259;51.080;13.712;2023-06-22T05:26:32;100719.88;;;28.62;48.49
6453;BME280;3259;51.080;13.712;2023-06-22T05:29:21;100713.88;;;28.66;48.42
6453;BME280;3259;51.080;13.712;2023-06-22T05:32:10;100724.81;;;28.71;48.72
6453;BME280;3259;51.080;13.712;2023-06-22T05:35:16;100722.31;;;28.76;48.48
6453;BME280;3259;51.080;13.712;2023-06-22T05:38:05;100703.31;;;28.78;48.88
6453;BME280;3259;51.080;13.712;2023-06-22T05:40:55;100695.81;;;28.86;48.73
6453;BME280;3259;51.080;13.712;2023-06-22T05:43:45;100694.16;;;28.92;48.23
6453;BME280;3259;51.080;13.712;2023-06-22T05:46:34;100694.97;;;28.92;48.61
6453;BME280;3259;51.080;13.712;2023-06-22T05:49:23;100691.28;;;28.93;48.88
6453;BME280;3259;51.080;13.712;2023-06-22T05:52:16;100703.25;;;28.91;49.16
6453;BME280;3259;51.080;13.712;2023-06-22T05:55:05;100698.06;;;28.96;48.36
6453;BME280;3259;51.080;13.712;2023-06-22T05:57:54;100693.28;;;28.98;48.81
6453;BME280;3259;51.080;13.712;2023-06-22T06:00:45;100693.88;;;29.06;48.37
6453;BME280;3259;51.080;13.712;2023-06-22T06:03:37;100688.72;;;29.05;48.40
6453;BME280;3259;51.080;13.712;2023-06-22T06:06:41;100680.44;;;29.06;48.06
6453;BME280;3259;51.080;13.712;2023-06-22T06:09:47;100679.16;;;29.09;48.47
6453;BME280;3259;51.080;13.712;2023-06-22T06:12:36;100670.50;;;29.07;48.28
6453;BME280;3259;51.080;13.712;2023-06-22T06:15:26;100680.41;;;29.13;48.76
6453;BME280;3259;51.080;13.712;2023-06-22T06:18:21;100674.59;;;29.16;49.05
6453;BME280;3259;51.080;13.712;2023-06-22T06:21:18;100653.25;;;29.21;48.33
6453;BME280;3259;51.080;13.712;2023-06-22T06:24:07;100647.88;;;29.21;48.41
6453;BME280;3259;51.080;13.712;2023-06-22T06:26:57;100615.41;;;29.22;48.39
6453;BME280;3259;51.080;13.712;2023-06-22T06:29:45;100566.59;;;29.25;47.70
6453;BME280;3259;51.080;13.712;2023-06-22T06:32:35;100562.06;;;29.26;47.65
6453;BME280;3259;51.080;13.712;2023-06-22T06:35:26;100576.97;;;29.22;47.81
6453;BME280;3259;51.080;13.712;2023-06-22T06:38:16;100571.16;;;29.25;47.04
6453;BME280;3259;51.080;13.712;2023-06-22T06:41:04;100581.03;;;29.31;47.30
6453;BME280;3259;51.080;13.712;2023-06-22T06:43:53;100587.44;;;29.30;47.26
6453;BME280;3259;51.080;13.712;2023-06-22T06:46:43;100586.84;;;29.28;47.98
6453;BME280;3259;51.080;13.712;2023-06-22T06:49:33;100568.47;;;29.25;47.43
6453;BME280;3259;51.080;13.712;2023-06-22T06:52:23;100561.63;;;29.29;47.56
6453;BME280;3259;51.080;13.712;2023-06-22T06:55:12;100565.94;;;29.30;47.78
6453;BME280;3259;51.080;13.712;2023-06-22T06:58:01;100570.28;;;29.31;48.05
6453;BME280;3259;51.080;13.712;2023-06-22T07:00:54;100575.25;;;29.27;48.10
6453;BME280;3259;51.080;13.712;2023-06-22T07:03:43;100572.31;;;29.35;48.19
6453;BME280;3259;51.080;13.712;2023-06-22T07:06:32;100584.09;;;29.34;47.51
6453;BME280;3259;51.080;13.712;2023-06-22T07:09:22;100587.59;;;29.35;47.96
6453;BME280;3259;51.080;13.712;2023-06-22T07:12:11;100589.53;;;29.28;48.02
6453;BME280;3259;51.080;13.712;2023-06-22T07:15:03;100591.78;;;29.31;48.38
6453;BME280;3259;51.080;13.712;2023-06-22T07:17:54;100588.44;;;29.35;48.61
6453;BME280;3259;51.080;13.712;2023-06-22T07:20:43;100583.44;;;29.39;49.53
6453;BME280;3259;51.080;13.712;2023-06-22T07:23:32;100583.38;;;29.45;49.03
6453;BME280;3259;51.080;13.712;2023-06-22T07:26:22;100577.59;;;29.48;48.12
6453;BME280;3259;51.080;13.712;2023-06-22T07:29:11;100586.19;;;29.57;48.12
6453;BME280;3259;51.080;13.712;2023-06-22T07:32:00;100588.59;;;29.65;48.13
6453;BME280;3259;51.080;13.712;2023-06-22T07:34:51;100586.56;;;29.60;48.53
6453;BME280;3259;51.080;13.712;2023-06-22T07:37:40;100578.72;;;29.59;48.12
6453;BME280;3259;51.080;13.712;2023-06-22T07:40:29;100576.63;;;29.61;48.18
6453;BME280;3259;51.080;13.712;2023-06-22T07:43:20;100583.22;;;29.65;48.06
6453;BME280;3259;51.080;13.712;2023-06-22T07:46:10;100579.25;;;29.67;47.97
6453;BME280;3259;51.080;13.712;2023-06-22T07:48:59;100580.22;;;29.73;48.13
6453;BME280;3259;51.080;13.712;2023-06-22T07:51:48;100582.19;;;29.84;47.62
6453;BME280;3259;51.080;13.712;2023-06-22T07:54:37;100586.56;;;29.96;47.38
6453;BME280;3259;51.080;13.712;2023-06-22T07:57:28;100582.75;;;30.04;47.84
6453;BME280;3259;51.080;13.712;2023-06-22T08:00:22;100581.44;;;30.13;47.41
6453;BME280;3259;51.080;13.712;2023-06-22T08:03:11;100574.88;;;30.09;47.07
6453;BME280;3259;51.080;13.712;2023-06-22T08:06:01;100578.88;;;30.18;47.24
6453;BME280;3259;51.080;13.712;2023-06-22T08:08:50;100582.09;;;30.26;46.48
6453;BME280;3259;51.080;13.712;2023-06-22T08:11:41;100572.22;;;30.20;46.75
6453;BME280;3259;51.080;13.712;2023-06-22T08:14:30;100565.88;;;30.33;46.45
6453;BME280;3259;51.080;13.712;2023-06-22T08:17:21;100572.56;;;30.42;46.30
6453;BME280;3259;51.080;13.712;2023-06-22T08:20:10;100563.59;;;30.48;46.19
6453;BME280;3259;51.080;13.712;2023-06-22T08:22:59;100565.50;;;30.59;45.85
6453;BME280;3259;51.080;13.712;2023-06-22T08:25:53;100550.53;;;30.63;46.25
6453;BME280;3259;51.080;13.712;2023-06-22T08:28:41;100554.44;;;30.67;45.68
6453;BME280;3259;51.080;13.712;2023-06-22T08:31:31;100557.84;;;30.74;45.60
6453;BME280;3259;51.080;13.712;2023-06-22T08:34:22;100562.31;;;30.80;45.51
6453;BME280;3259;51.080;13.712;2023-06-22T08:37:14;100557.22;;;30.60;45.97
6453;BME280;3259;51.080;13.712;2023-06-22T08:40:05;100551.44;;;30.57;46.69
6453;BME280;3259;51.080;13.712;2023-06-22T08:42:55;100545.06;;;30.69;45.72
6453;BME280;3259;51.080;13.712;2023-06-22T08:45:44;100540.50;;;30.70;46.03
6453;BME280;3259;51.080;13.712;2023-06-22T08:48:33;100538.06;;;30.80;46.07
6453;BME280;3259;51.080;13.712;2023-06-22T08:51:23;100540.53;;;30.93;45.13
6453;BME280;3259;51.080;13.712;2023-06-22T08:54:12;100531.41;;;30.94;45.16
6453;BME280;3259;51.080;13.712;2023-06-22T08:57:01;100543.81;;;30.95;45.39
6453;BME280;3259;51.080;13.712;2023-06-22T08:59:50;100543.13;;;30.99;45.16
6453;BME280;3259;51.080;13.712;2023-06-22T09:02:40;100530.94;;;30.97;45.26
6453;BME280;3259;51.080;13.712;2023-06-22T09:05:28;100532.72;;;31.02;45.17
6453;BME280;3259;51.080;13.712;2023-06-22T09:08:19;100531.63;;;30.92;45.29
6453;BME280;3259;51.080;13.712;2023-06-22T09:11:08;100525.69;;;31.02;45.14
6453;BME280;3259;51.080;13.712;2023-06-22T09:13:57;100526.25;;;31.03;45.52
6453;BME280;3259;51.080;13.712;2023-06-22T09:16:46;100526.59;;;31.07;44.96
6453;BME280;3259;51.080;13.712;2023-06-22T09:19:35;100533.28;;;31.04;45.10
6453;BME280;3259;51.080;13.712;2023-06-22T09:22:24;100531.66;;;31.03;45.25
6453;BME280;3259;51.080;13.712;2023-06-22T09:25:17;100517.00;;;31.11;45.45
6453;BME280;3259;51.080;13.712;2023-06-22T09:28:07;100528.72;;;31.05;45.11
6453;BME280;3259;51.080;13.712;2023-06-22T09:30:56;100516.06;;;31.05;45.15
6453;BME280;3259;51.080;13.712;2023-06-22T09:33:46;100507.97;;;31.05;45.17
6453;BME280;3259;51.080;13.712;2023-06-22T09:36:35;100510.78;;;31.10;45.39
6453;BME280;3259;51.080;13.712;2023-06-22T09:39:26;100510.78;;;31.10;45.15
6453;BME280;3259;51.080;13.712;2023-06-22T09:42:16;100509.97;;;31.10;45.22
6453;BME280;3259;51.080;13.712;2023-06-22T09:45:06;100497.69;;;31.14;45.37
6453;BME280;3259;51.080;13.712;2023-06-22T09:47:55;100503.66;;;31.16;44.97
6453;BME280;3259;51.080;13.712;2023-06-22T09:50:44;100500.13;;;31.04;45.41
6453;BME280;3259;51.080;13.712;2023-06-22T09:53:32;100497.78;;;31.07;45.82
6453;BME280;3259;51.080;13.712;2023-06-22T09:56:22;100488.41;;;31.10;45.57
6453;BME280;3259;51.080;13.712;2023-06-22T09:59:15;100495.19;;;31.12;45.73
6453;BME280;3259;51.080;13.712;2023-06-22T10:02:05;100490.66;;;31.24;45.17
6453;BME280;3259;51.080;13.712;2023-06-22T10:04:55;100492.91;;;31.27;45.24
6453;BME280;3259;51.080;13.712;2023-06-22T10:07:44;100489.00;;;31.23;45.38
6453;BME280;3259;51.080;13.712;2023-06-22T10:10:33;100482.69;;;31.29;45.38
6453;BME280;3259;51.080;13.712;2023-06-22T10:13:22;100474.25;;;31.37;44.63
6453;BME280;3259;51.080;13.712;2023-06-22T10:16:12;100476.00;;;31.20;45.50
6453;BME280;3259;51.080;13.712;2023-06-22T10:19:01;100471.06;;;31.29;44.95
6453;BME280;3259;51.080;13.712;2023-06-22T10:21:50;100475.66;;;31.28;45.47
6453;BME280;3259;51.080;13.712;2023-06-22T10:24:38;100471.88;;;31.41;44.76
6453;BME280;3259;51.080;13.712;2023-06-22T10:27:31;100478.09;;;31.30;45.49
6453;BME280;3259;51.080;13.712;2023-06-22T10:30:20;100467.31;;;31.30;45.43
6453;BME280;3259;51.080;13.712;2023-06-22T10:33:11;100468.50;;;31.22;45.30
6453;BME280;3259;51.080;13.712;2023-06-22T10:35:59;100451.66;;;31.15;45.82
6453;BME280;3259;51.080;13.712;2023-06-22T10:38:48;100456.28;;;31.08;45.65
6453;BME280;3259;51.080;13.712;2023-06-22T10:41:37;100459.97;;;31.25;45.10
6453;BME280;3259;51.080;13.712;2023-06-22T10:44:25;100445.03;;;31.46;44.57
6453;BME280;3259;51.080;13.712;2023-06-22T10:47:14;100450.97;;;31.59;44.37
6453;BME280;3259;51.080;13.712;2023-06-22T10:50:06;100446.63;;;31.70;44.46
6453;BME280;3259;51.080;13.712;2023-06-22T10:52:54;100436.19;;;31.73;44.67
6453;BME280;3259;51.080;13.712;2023-06-22T10:55:46;100442.25;;;31.80;44.47
6453;BME280;3259;51.080;13.712;2023-06-22T10:58:44;100443.31;;;31.79;44.75
6453;BME280;3259;51.080;13.712;2023-06-22T11:01:33;100444.47;;;31.83;44.62
6453;BME280;3259;51.080;13.712;2023-06-22T11:04:24;100434.41;;;31.79;44.64
6453;BME280;3259;51.080;13.712;2023-06-22T11:07:15;100426.88;;;31.81;44.84
6453;BME280;3259;51.080;13.712;2023-06-22T11:10:04;100440.59;;;31.79;44.63
6453;BME280;3259;51.080;13.712;2023-06-22T11:12:53;100433.09;;;31.81;44.56
6453;BME280;3259;51.080;13.712;2023-06-22T11:15:43;100434.06;;;31.75;44.60
6453;BME280;3259;51.080;13.712;2023-06-22T11:18:32;100423.53;;;31.62;45.28
6453;BME280;3259;51.080;13.712;2023-06-22T11:21:21;100420.47;;;31.70;45.14
6453;BME280;3259;51.080;13.712;2023-06-22T11:24:11;100429.81;;;31.79;44.67
6453;BME280;3259;51.080;13.712;2023-06-22T11:27:00;100431.47;;;31.80;44.76
6453;BME280;3259;51.080;13.712;2023-06-22T11:29:49;100426.34;;;31.67;45.39
6453;BME280;3259;51.080;13.712;2023-06-22T11:32:40;100420.13;;;31.55;45.78
6453;BME280;3259;51.080;13.712;2023-06-22T11:35:29;100413.97;;;31.43;46.11
6453;BME280;3259;51.080;13.712;2023-06-22T11:38:17;100404.59;;;31.34;46.17
6453;BME280;3259;51.080;13.712;2023-06-22T11:41:08;100398.28;;;31.29;46.36
6453;BME280;3259;51.080;13.712;2023-06-22T11:43:57;100393.41;;;31.14;46.56
6453;BME280;3259;51.080;13.712;2023-06-22T11:46:45;100386.56;;;31.23;46.76
6453;BME280;3259;51.080;13.712;2023-06-22T11:49:35;100391.50;;;31.26;46.71
6453;BME280;3259;51.080;13.712;2023-06-22T11:52:24;100387.75;;;31.27;46.47
6453;BME280;3259;51.080;13.712;2023-06-22T11:55:13;100394.56;;;31.18;47.11
6453;BME280;3259;51.080;13.712;2023-06-22T11:58:07;100390.91;;;31.24;46.61
6453;BME280;3259;51.080;13.712;2023-06-22T12:00:55;100386.22;;;31.31;46.33
6453;BME280;3259;51.080;13.712;2023-06-22T12:03:46;100385.84;;;31.28;46.83
6453;BME280;3259;51.080;13.712;2023-06-22T12:06:37;100371.31;;;31.29;46.45
6453;BME280;3259;51.080;13.712;2023-06-22T12:09:29;100359.81;;;31.33;46.61
6453;BME280;3259;51.080;13.712;2023-06-22T12:12:17;100354.91;;;31.30;46.57
6453;BME280;3259;51.080;13.712;2023-06-22T12:15:09;100358.53;;;31.36;46.38
6453;BME280;3259;51.080;13.712;2023-06-22T12:17:58;100353.00;;;31.42;46.17
6453;BME280;3259;51.080;13.712;2023-06-22T12:20:48;100348.75;;;31.46;46.53
6453;BME280;3259;51.080;13.712;2023-06-22T12:23:37;100347.81;;;31.52;46.15
6453;BME280;3259;51.080;13.712;2023-06-22T12:26:25;100353.09;;;31.47;46.51
6453;BME280;3259;51.080;13.712;2023-06-22T12:29:14;100347.22;;;31.50;46.39
6453;BME280;3259;51.080;13.712;2023-06-22T12:32:05;100340.66;;;31.46;46.25
6453;BME280;3259;51.080;13.712;2023-06-22T12:34:54;100342.50;;;31.57;46.43
6453;BME280;3259;51.080;13.712;2023-06-22T12:37:43;100335.38;;;31.51;46.52
6453;BME280;3259;51.080;13.712;2023-06-22T12:40:32;100337.97;;;31.46;46.49
6453;BME280;3259;51.080;13.712;2023-06-22T12:43:21;100315.09;;;31.49;46.39
6453;BME280;3259;51.080;13.712;2023-06-22T12:46:09;100320.63;;;31.42;46.47
6453;BME280;3259;51.080;13.712;2023-06-22T12:48:59;100315.53;;;31.57;46.09
6453;BME280;3259;51.080;13.712;2023-06-22T12:51:51;100318.78;;;31.43;46.97
6453;BME280;3259;51.080;13.712;2023-06-22T12:54:40;100319.94;;;31.35;46.93
6453;BME280;3259;51.080;13.712;2023-06-22T12:57:40;100313.97;;;31.33;46.67
6453;BME280;3259;51.080;13.712;2023-06-22T13:00:29;100311.19;;;31.28;47.29
6453;BME280;3259;51.080;13.712;2023-06-22T13:03:18;100311.84;;;31.35;46.78
6453;BME280;3259;51.080;13.712;2023-06-22T13:06:08;100301.75;;;31.42;46.94
6453;BME280;3259;51.080;13.712;2023-06-22T13:08:57;100299.25;;;31.52;46.61
6453;BME280;3259;51.080;13.712;2023-06-22T13:11:49;100295.25;;;31.55;46.59
6453;BME280;3259;51.080;13.712;2023-06-22T13:14:39;100294.22;;;31.56;46.70
6453;BME280;3259;51.080;13.712;2023-06-22T13:17:27;100291.56;;;31.44;47.07
6453;BME280;3259;51.080;13.712;2023-06-22T13:20:16;100290.09;;;31.53;46.61
6453;BME280;3259;51.080;13.712;2023-06-22T13:23:06;100295.06;;;31.45;46.78
6453;BME280;3259;51.080;13.712;2023-06-22T13:25:55;100289.13;;;31.43;46.77
6453;BME280;3259;51.080;13.712;2023-06-22T13:28:44;100284.22;;;31.56;46.61
6453;BME280;3259;51.080;13.712;2023-06-22T13:31:33;100278.03;;;31.72;46.57
6453;BME280;3259;51.080;13.712;2023-06-22T13:34:39;100278.88;;;31.73;46.39
6453;BME280;3259;51.080;13.712;2023-06-22T13:37:28;100274.78;;;31.70;46.68
6453;BME280;3259;51.080;13.712;2023-06-22T13:40:19;100255.16;;;31.75;46.40
6453;BME280;3259;51.080;13.712;2023-06-22T13:43:08;100261.06;;;31.72;46.35
6453;BME280;3259;51.080;13.712;2023-06-22T13:45:57;100252.63;;;31.68;46.63
6453;BME280;3259;51.080;13.712;2023-06-22T13:48:45;100240.56;;;31.59;46.69
6453;BME280;3259;51.080;13.712;2023-06-22T13:51:35;100229.53;;;31.61;46.47
6453;BME280;3259;51.080;13.712;2023-06-22T13:54:24;100235.09;;;31.54;47.12
6453;BME280;3259;51.080;13.712;2023-06-22T13:57:18;100232.97;;;31.56;46.90
6453;BME280;3259;51.080;13.712;2023-06-22T14:00:08;100236.81;;;31.60;46.70
6453;BME280;3259;51.080;13.712;2023-06-22T14:02:59;100223.25;;;31.55;46.83
6453;BME280;3259;51.080;13.712;2023-06-22T14:05:48;100226.50;;;31.57;46.92
6453;BME280;3259;51.080;13.712;2023-06-22T14:08:37;100230.19;;;31.51;46.90
6453;BME280;3259;51.080;13.712;2023-06-22T14:11:28;100225.28;;;31.48;47.10
6453;BME280;3259;51.080;13.712;2023-06-22T14:14:18;100226.94;;;31.49;47.30
6453;BME280;3259;51.080;13.712;2023-06-22T14:17:07;100221.28;;;31.51;47.16
6453;BME280;3259;51.080;13.712;2023-06-22T14:19:55;100218.00;;;31.49;46.89
6453;BME280;3259;51.080;13.712;2023-06-22T14:22:44;100220.13;;;31.47;47.13
6453;BME280;3259;51.080;13.712;2023-06-22T14:25:33;100209.19;;;31.53;47.37
6453;BME280;3259;51.080;13.712;2023-06-22T14:28:21;100203.31;;;31.56;47.19
6453;BME280;3259;51.080;13.712;2023-06-22T14:31:12;100195.47;;;31.55;47.77
6453;BME280;3259;51.080;13.712;2023-06-22T14:34:01;100207.06;;;31.55;47.45
6453;BME280;3259;51.080;13.712;2023-06-22T14:36:52;100197.56;;;31.53;47.42
6453;BME280;3259;51.080;13.712;2023-06-22T14:39:41;100191.72;;;31.56;47.40
6453;BME280;3259;51.080;13.712;2023-06-22T14:42:30;100201.91;;;31.54;47.38
6453;BME280;3259;51.080;13.712;2023-06-22T14:45:19;100195.59;;;31.48;47.74
6453;BME280;3259;51.080;13.712;2023-06-22T14:48:09;100181.09;;;31.49;47.97
6453;BME280;3259;51.080;13.712;2023-06-22T14:50:58;100179.75;;;31.52;47.99
6453;BME280;3259;51.080;13.712;2023-06-22T14:53:47;100166.03;;;31.53;47.76
6453;BME280;3259;51.080;13.712;2023-06-22T14:56:36;100162.34;;;31.59;47.80
6453;BME280;3259;51.080;13.712;2023-06-22T14:59:25;100150.50;;;31.60;47.87
6453;BME280;3259;51.080;13.712;2023-06-22T15:02:13;100137.59;;;31.62;48.03